Time;durP1;ratioP1;P1;durP2;ratioP2;P2;SDS_P1;SDS_P2;PMS_P1;PMS_P2;Temp;Humidity;BMP_temperature;BMP_pressure;BME280_temperature;BME280_humidity;BME280_pressure;Samples;Min_cycle;Max_cycle;Signal;HPM_P1;HPM_P2
2024/02/06 04:51:09;;;;;;;15.52;7.28;;;6.50;99.90;;;;;;5086666;22;20327;-86
2024/02/06 04:53:35;;;;;;;16.17;7.20;;;;;;;;;;5102375;28;20032;-86
2024/02/06 04:56:01;;;;;;;16.17;7.38;;;6.60;99.90;;;;;;5095482;28;20043;-87
2024/02/06 04:58:27;;;;;;;14.63;7.03;;;9.40;99.90;;;;;;5076114;28;20131;-88
2024/02/06 05:01:01;;;;;;;14.80;6.95;;;8.30;99.90;;;;;;5091457;28;20082;-85
2024/02/06 05:03:27;;;;;;;15.77;6.88;;;6.60;99.90;;;;;;5095369;28;20035;-86
2024/02/06 05:05:52;;;;;;;13.55;6.82;;;7.30;99.90;;;;;;5098707;28;20017;-88
2024/02/06 05:08:18;;;;;;;14.23;6.93;;;;;;;;;;5088051;28;20024;-88
2024/02/06 05:10:47;;;;;;;13.18;6.25;;;;;;;;;;5085027;28;20024;-88
2024/02/06 05:13:13;;;;;;;15.48;6.57;;;6.80;99.90;;;;;;5107976;28;20051;-85
2024/02/06 05:15:38;;;;;;;15.20;5.95;;;6.90;99.90;;;;;;5110398;27;20054;-88
2024/02/06 05:18:04;;;;;;;11.50;5.15;;;;;;;;;;5101109;28;20016;-86
2024/02/06 05:20:30;;;;;;;12.43;5.97;;;6.90;99.90;;;;;;5090032;28;20008;-85
2024/02/06 05:22:56;;;;;;;12.25;5.65;;;10.30;99.90;;;;;;5104213;28;20209;-85
2024/02/06 05:25:21;;;;;;;10.40;5.20;;;8.10;99.90;;;;;;5082335;28;20024;-88
2024/02/06 05:27:47;;;;;;;14.73;6.47;;;8.00;99.90;;;;;;5080110;28;20028;-86
2024/02/06 05:30:13;;;;;;;12.25;5.72;;;9.30;99.90;;;;;;5083034;28;20015;-87
2024/02/06 05:32:39;;;;;;;12.32;5.93;;;6.90;99.90;;;;;;5085334;28;20060;-88
2024/02/06 05:35:05;;;;;;;13.68;6.70;;;7.10;99.90;;;;;;5081651;28;20008;-85
2024/02/06 05:37:31;;;;;;;9.75;5.47;;;6.90;99.90;;;;;;5085005;28;20008;-88
2024/02/06 05:39:57;;;;;;;9.88;5.20;;;;;;;;;;5089279;28;20039;-88
2024/02/06 05:42:23;;;;;;;13.63;5.95;;;6.90;99.90;;;;;;5085652;28;20046;-85
2024/02/06 05:44:49;;;;;;;12.50;6.07;;;9.30;99.90;;;;;;5101631;28;20004;-86
2024/02/06 05:47:16;;;;;;;14.90;6.55;;;6.50;99.90;;;;;;5081829;28;20048;-86
2024/02/06 05:49:42;;;;;;;11.73;5.63;;;9.10;99.90;;;;;;5098885;28;20033;-87
2024/02/06 05:52:08;;;;;;;11.35;5.93;;;7.60;99.90;;;;;;5090196;27;20029;-86
2024/02/06 05:54:33;;;;;;;12.45;5.88;;;6.90;99.90;;;;;;5086897;28;20108;-88
2024/02/06 05:56:59;;;;;;;15.48;5.90;;;6.80;99.90;;;;;;5086601;28;20009;-87
2024/02/06 05:59:28;;;;;;;15.35;6.68;;;6.80;99.90;;;;;;5083630;28;20043;-88
2024/02/06 06:01:54;;;;;;;14.27;6.82;;;6.80;99.90;;;;;;5081636;28;21395;-86
2024/02/06 06:04:20;;;;;;;12.90;6.43;;;8.90;99.90;;;;;;5103473;28;20036;-87
2024/02/06 06:06:46;;;;;;;13.75;7.53;;;7.00;99.90;;;;;;5073299;28;20024;-88
2024/02/06 06:09:12;;;;;;;14.27;8.13;;;8.00;99.90;;;;;;5084546;28;20029;-88
2024/02/06 06:11:38;;;;;;;15.65;8.02;;;7.00;99.90;;;;;;5086991;28;20012;-87
2024/02/06 06:14:04;;;;;;;14.35;8.60;;;9.30;99.90;;;;;;5091288;28;20035;-86
2024/02/06 06:16:29;;;;;;;15.57;8.68;;;8.20;99.90;;;;;;5088264;28;20039;-87
2024/02/06 06:18:55;;;;;;;14.82;8.50;;;7.50;99.90;;;;;;5088306;28;20028;-87
2024/02/06 06:21:20;;;;;;;16.10;9.57;;;9.40;99.90;;;;;;5080391;28;20012;-87
2024/02/06 06:23:46;;;;;;;16.08;8.82;;;9.10;99.90;;;;;;5084527;28;20027;-88
2024/02/06 06:26:12;;;;;;;15.48;8.85;;;6.80;99.90;;;;;;5085938;28;20024;-88
2024/02/06 06:28:37;;;;;;;16.70;8.77;;;6.70;99.90;;;;;;5077700;28;20059;-87
2024/02/06 06:31:05;;;;;;;15.80;9.00;;;8.00;99.90;;;;;;5082106;28;20251;-88
2024/02/06 06:33:31;;;;;;;15.75;8.95;;;6.90;99.90;;;;;;5077719;28;20184;-87
2024/02/06 06:35:56;;;;;;;17.02;8.98;;;6.90;99.90;;;;;;5077084;28;20027;-87
2024/02/06 06:38:22;;;;;;;16.15;9.02;;;6.90;99.90;;;;;;5081629;28;20013;-87
2024/02/06 06:40:48;;;;;;;18.20;9.45;;;7.00;99.90;;;;;;5081894;28;20036;-86
2024/02/06 06:43:15;;;;;;;15.52;9.70;;;7.90;99.90;;;;;;5075947;28;20025;-86
2024/02/06 06:45:41;;;;;;;17.05;9.90;;;9.40;99.90;;;;;;5084888;28;20036;-88
2024/02/06 06:48:07;;;;;;;18.13;10.55;;;6.90;99.90;;;;;;5083470;28;20012;-86
2024/02/06 06:50:32;;;;;;;23.08;10.48;;;6.90;99.90;;;;;;5087339;28;20226;-89
2024/02/06 06:52:59;;;;;;;19.88;11.52;;;8.20;99.90;;;;;;5090058;28;20020;-88
2024/02/06 06:55:24;;;;;;;20.08;11.52;;;6.20;99.90;;;;;;5094676;28;20020;-86
2024/02/06 06:57:50;;;;;;;16.35;10.65;;;9.00;99.90;;;;;;5081241;28;20035;-86
2024/02/06 07:00:16;;;;;;;19.40;10.60;;;6.70;99.90;;;;;;5098689;28;20074;-87
2024/02/06 07:02:43;;;;;;;16.65;10.07;;;;;;;;;;5078639;28;20484;-87
2024/02/06 07:05:12;;;;;;;21.77;11.18;;;6.80;99.90;;;;;;5101453;28;20079;-88
2024/02/06 07:07:38;;;;;;;14.45;9.70;;;6.60;99.90;;;;;;5091198;28;20028;-89
2024/02/06 07:10:05;;;;;;;18.25;10.10;;;8.40;99.90;;;;;;5091416;28;20020;-88
2024/02/06 07:12:32;;;;;;;14.73;9.20;;;6.80;99.90;;;;;;5086343;28;20031;-87
2024/02/06 07:14:58;;;;;;;16.73;9.60;;;6.80;99.90;;;;;;5096159;28;20099;-87
2024/02/06 07:17:24;;;;;;;20.77;9.20;;;;;;;;;;5087616;28;20036;-87
2024/02/06 07:19:49;;;;;;;16.48;7.97;;;6.80;99.90;;;;;;5101958;27;20018;-86
2024/02/06 07:22:15;;;;;;;17.27;8.77;;;6.90;99.90;;;;;;5086530;27;20004;-88
2024/02/06 07:24:42;;;;;;;16.65;8.98;;;6.90;99.90;;;;;;5084498;28;20008;-87
2024/02/06 07:27:08;;;;;;;14.15;8.75;;;7.50;99.90;;;;;;5066074;28;20040;-87
2024/02/06 07:29:35;;;;;;;16.00;9.20;;;6.90;99.90;;;;;;5084588;27;20019;-90
2024/02/06 07:32:01;;;;;;;13.65;7.70;;;6.90;99.90;;;;;;5087635;28;20016;-89
2024/02/06 07:34:27;;;;;;;40.83;11.07;;;9.30;99.90;;;;;;5085443;28;20024;-87
2024/02/06 07:36:53;;;;;;;14.45;7.93;;;8.70;99.90;;;;;;5081935;28;20017;-87
2024/02/06 07:39:18;;;;;;;17.23;9.48;;;9.30;99.90;;;;;;5087355;27;20028;-87
2024/02/06 07:41:44;;;;;;;19.02;9.15;;;8.90;99.90;;;;;;5088767;28;20012;-87
2024/02/06 07:44:10;;;;;;;15.95;9.13;;;9.30;99.90;;;;;;5088355;28;20016;-87
2024/02/06 07:46:35;;;;;;;18.02;9.40;;;9.00;99.90;;;;;;5092394;28;20020;-85
2024/02/06 07:49:01;;;;;;;18.88;9.52;;;7.00;99.90;;;;;;5102603;27;20095;-86
2024/02/06 07:51:27;;;;;;;16.83;9.63;;;9.00;99.90;;;;;;5102865;27;20032;-88
2024/02/06 07:53:54;;;;;;;12.77;8.40;;;9.10;99.90;;;;;;5084147;27;20046;-90
2024/02/06 07:56:19;;;;;;;14.93;9.40;;;9.00;99.90;;;;;;5091752;28;20323;-89
2024/02/06 07:58:46;;;;;;;15.93;9.35;;;9.60;99.90;;;;;;5087443;28;20016;-86
2024/02/06 08:01:12;;;;;;;14.70;9.27;;;9.10;99.90;;;;;;5106689;27;20024;-87
2024/02/06 08:03:38;;;;;;;15.20;8.95;;;7.00;99.90;;;;;;5090435;28;20054;-89
2024/02/06 08:06:04;;;;;;;13.30;7.95;;;8.60;99.90;;;;;;5088494;28;20084;-87
2024/02/06 08:08:30;;;;;;;14.07;7.78;;;7.00;99.90;;;;;;5095500;28;20004;-89
2024/02/06 08:10:55;;;;;;;13.30;8.45;;;7.10;99.90;;;;;;5088533;28;20048;-88
2024/02/06 08:13:21;;;;;;;11.90;8.18;;;8.90;99.90;;;;;;5106475;28;20035;-89
2024/02/06 08:15:47;;;;;;;16.73;8.20;;;8.40;99.90;;;;;;5091535;28;20019;-87
2024/02/06 08:18:13;;;;;;;15.05;8.43;;;7.10;99.90;;;;;;5091431;28;20036;-89
2024/02/06 08:20:39;;;;;;;14.43;7.95;;;9.20;99.90;;;;;;5079113;28;20074;-88
2024/02/06 08:23:04;;;;;;;13.57;8.32;;;8.40;99.90;;;;;;5089367;28;20036;-87
2024/02/06 08:25:32;;;;;;;17.17;8.40;;;;;;;;;;5096759;28;20035;-88
2024/02/06 08:27:57;;;;;;;10.93;7.15;;;7.00;99.90;;;;;;5085221;28;20031;-88
2024/02/06 08:30:23;;;;;;;12.05;7.05;;;9.50;99.90;;;;;;5089738;27;20046;-88
2024/02/06 08:32:48;;;;;;;11.02;6.90;;;8.50;99.90;;;;;;5088811;28;20303;-87
2024/02/06 08:35:14;;;;;;;12.70;6.72;;;9.00;99.90;;;;;;5084380;28;20032;-87
2024/02/06 08:37:40;;;;;;;12.23;6.50;;;7.30;99.90;;;;;;5099434;28;20027;-89
2024/02/06 08:40:07;;;;;;;10.98;6.20;;;9.20;99.90;;;;;;5088693;28;20020;-90
2024/02/06 08:42:35;;;;;;;10.07;5.53;;;7.00;99.90;;;;;;5074709;28;20012;-89
2024/02/06 08:45:02;;;;;;;9.90;5.30;;;9.10;99.90;;;;;;5089923;28;20008;-88
2024/02/06 08:47:28;;;;;;;9.75;5.60;;;7.70;99.90;;;;;;5098987;28;20028;-86
2024/02/06 08:49:54;;;;;;;9.13;5.53;;;9.00;99.90;;;;;;5097817;28;22411;-88
2024/02/06 08:52:19;;;;;;;10.38;5.47;;;8.40;99.90;;;;;;5086159;28;20024;-88
2024/02/06 08:54:45;;;;;;;8.55;5.07;;;;;;;;;;5090959;28;20035;-89
2024/02/06 08:57:11;;;;;;;10.93;5.47;;;7.20;99.90;;;;;;5088922;28;20027;-86
2024/02/06 08:59:37;;;;;;;11.68;6.60;;;7.10;99.90;;;;;;5085173;28;20028;-88
2024/02/06 09:02:03;;;;;;;11.75;5.50;;;;;;;;;;5084802;28;20030;-88
2024/02/06 09:04:32;;;;;;;9.52;5.30;;;7.20;99.90;;;;;;5087879;28;20027;-88
2024/02/06 09:06:58;;;;;;;11.23;6.75;;;7.50;99.90;;;;;;5084028;28;20032;-89
2024/02/06 09:09:24;;;;;;;9.75;6.10;;;8.90;99.90;;;;;;5086483;28;20027;-89
2024/02/06 09:11:51;;;;;;;12.40;6.13;;;8.00;99.90;;;;;;5084434;28;20028;-89
2024/02/06 09:14:17;;;;;;;10.32;6.63;;;7.30;99.90;;;;;;5068792;27;20051;-89
2024/02/06 09:16:42;;;;;;;11.30;6.32;;;8.70;99.90;;;;;;5081139;28;20012;-89
2024/02/06 09:19:08;;;;;;;12.65;6.85;;;9.40;99.90;;;;;;5104470;28;20075;-89
2024/02/06 09:21:35;;;;;;;15.43;7.82;;;8.70;99.90;;;;;;5100345;28;20019;-89
2024/02/06 09:24:02;;;;;;;13.82;7.22;;;7.60;99.90;;;;;;5089522;28;20020;-87
2024/02/06 09:26:27;;;;;;;12.32;6.40;;;9.80;99.90;;;;;;5087305;28;20021;-88
2024/02/06 09:28:53;;;;;;;13.27;7.45;;;;;;;;;;5077440;28;20096;-89
2024/02/06 09:31:24;;;;;;;13.55;7.22;;;7.60;99.90;;;;;;5094425;28;20020;-88
2024/02/06 09:33:50;;;;;;;12.85;7.78;;;;;;;;;;5106890;28;20039;-89
2024/02/06 09:36:16;;;;;;;11.85;6.97;;;;;;;;;;5111871;28;20046;-89
2024/02/06 09:38:41;;;;;;;14.88;6.43;;;7.70;99.90;;;;;;5095008;28;20011;-91
2024/02/06 09:41:09;;;;;;;13.70;6.63;;;7.60;99.90;;;;;;5095201;28;20036;-87
2024/02/06 09:43:39;;;;;;;15.25;7.40;;;7.60;99.90;;;;;;5094566;28;20020;-87
2024/02/06 09:46:04;;;;;;;14.00;7.72;;;7.50;99.90;;;;;;5090193;28;20082;-87
2024/02/06 09:48:30;;;;;;;10.40;6.85;;;;;;;;;;5090612;28;20004;-87
2024/02/06 09:50:57;;;;;;;12.00;7.40;;;;;;;;;;5107257;27;20028;-88
2024/02/06 09:53:25;;;;;;;10.18;6.47;;;7.50;99.90;;;;;;5095509;28;20107;-88
2024/02/06 09:55:53;;;;;;;12.77;7.50;;;7.50;99.90;;;;;;5107883;28;20024;-90
2024/02/06 09:58:19;;;;;;;12.65;7.38;;;;;;;;;;5080020;28;20051;-87
2024/02/06 10:00:47;;;;;;;12.98;6.45;;;7.50;99.90;;;;;;5104879;27;20016;-87
2024/02/06 10:03:34;;;;;;;9.70;6.05;;;7.70;99.90;;;;;;5111601;27;20084;-88
2024/02/06 10:06:03;;;;;;;10.15;6.05;;;7.60;99.90;;;;;;5093402;28;20028;-86
2024/02/06 10:08:31;;;;;;;10.00;5.93;;;;;;;;;;5094453;28;20019;-89
2024/02/06 10:10:57;;;;;;;9.88;6.80;;;;;;;;;;5112015;28;20047;-86
2024/02/06 10:13:24;;;;;;;10.82;6.97;;;;;;;;;;5090745;28;20028;-88
2024/02/06 10:15:50;;;;;;;15.32;7.03;;;;;;;;;;5108657;28;20736;-89
2024/02/06 10:18:16;;;;;;;14.70;7.20;;;7.60;99.90;;;;;;5085793;28;20031;-87
2024/02/06 10:20:46;;;;;;;11.25;7.10;;;7.60;99.90;;;;;;5090477;28;20016;-89
2024/02/06 10:23:18;;;;;;;11.48;6.75;;;7.70;99.90;;;;;;5106575;28;20031;-88
2024/02/06 10:25:44;;;;;;;13.18;7.38;;;;;;;;;;5093695;28;20113;-89
2024/02/06 10:28:10;;;;;;;11.32;6.30;;;;;;;;;;5108928;28;20030;-87
2024/02/06 10:30:37;;;;;;;13.10;6.63;;;;;;;;;;5088378;28;20037;-87
2024/02/06 10:33:20;;;;;;;9.73;6.00;;;7.80;99.90;;;;;;5091604;28;20105;-87
2024/02/06 10:35:46;;;;;;;9.70;6.03;;;;;;;;;;5091944;28;20028;-88
2024/02/06 10:38:19;;;;;;;12.20;6.53;;;7.90;99.90;;;;;;5087884;28;20044;-89
2024/02/06 10:40:45;;;;;;;8.38;5.40;;;;;;;;;;5112595;27;20004;-89
2024/02/06 10:43:12;;;;;;;10.13;5.22;;;;;;;;;;5099157;28;20037;-88
2024/02/06 10:45:38;;;;;;;9.00;5.05;;;;;;;;;;5090624;28;20029;-89
2024/02/06 10:48:11;;;;;;;11.85;6.43;;;7.90;99.90;;;;;;5092567;28;20096;-89
2024/02/06 10:50:37;;;;;;;12.82;5.40;;;;;;;;;;5091561;28;20012;-87
2024/02/06 10:53:04;;;;;;;11.38;5.63;;;;;;;;;;5092558;28;20071;-89
2024/02/06 10:55:37;;;;;;;10.07;6.03;;;;;;;;;;5090405;28;20029;-87
2024/02/06 10:58:08;;;;;;;10.90;5.80;;;7.90;99.90;;;;;;5107769;28;20007;-88
2024/02/06 11:00:44;;;;;;;9.18;5.78;;;7.90;99.90;;;;;;5092406;27;20020;-88
2024/02/06 11:03:12;;;;;;;10.65;5.57;;;;;;;;;;5106817;22;20042;-89
2024/02/06 11:05:48;;;;;;;13.02;5.72;;;8.10;99.90;;;;;;5091086;27;20020;-89
2024/02/06 11:08:16;;;;;;;11.13;6.45;;;8.10;99.90;;;;;;5095922;27;20029;-90
2024/02/06 11:11:03;;;;;;;10.20;5.70;;;8.00;99.90;;;;;;5094807;27;20028;-89
2024/02/06 11:13:36;;;;;;;9.13;5.90;;;8.00;99.90;;;;;;5090620;28;20021;-87
2024/02/06 11:16:08;;;;;;;10.38;5.97;;;7.90;99.90;;;;;;5072032;28;20100;-88
2024/02/06 11:19:20;;;;;;;13.10;6.85;;;8.00;99.90;;;;;;5091591;27;20025;-87
2024/02/06 11:21:55;;;;;;;14.30;6.00;;;8.10;99.90;;;;;;5085152;28;20010;-89
2024/02/06 11:24:22;;;;;;;10.55;6.43;;;7.90;99.90;;;;;;5075241;27;20021;-89
2024/02/06 11:26:48;;;;;;;10.07;6.32;;;8.00;99.90;;;;;;5071720;28;20036;-91
2024/02/06 11:29:15;;;;;;;12.80;6.50;;;7.90;99.90;;;;;;5072950;28;20027;-88
2024/02/06 11:31:41;;;;;;;11.65;7.25;;;8.00;99.90;;;;;;5075479;28;20100;-90
2024/02/06 11:34:14;;;;;;;11.18;6.65;;;8.00;99.90;;;;;;5077912;28;20040;-88
2024/02/06 11:36:41;;;;;;;9.98;6.28;;;9.00;99.90;;;;;;5073764;28;20019;-87
2024/02/06 11:39:08;;;;;;;12.88;6.88;;;6.80;99.90;;;;;;5072967;28;20050;-87
2024/02/06 11:41:41;;;;;;;12.60;6.93;;;7.90;99.90;;;;;;5073134;28;20027;-89
2024/02/06 11:44:19;;;;;;;15.50;6.82;;;7.80;99.90;;;;;;5073447;28;20024;-88
2024/02/06 11:46:48;;;;;;;13.13;6.18;;;7.90;99.90;;;;;;5089531;28;20005;-88
2024/02/06 11:49:24;;;;;;;9.60;5.72;;;8.00;99.90;;;;;;5090757;28;20009;-89
2024/02/06 11:51:56;;;;;;;8.90;6.05;;;8.00;99.90;;;;;;5069755;28;20036;-88
2024/02/06 11:54:22;;;;;;;10.23;6.53;;;8.00;99.90;;;;;;5071406;27;20032;-88
2024/02/06 11:56:50;;;;;;;12.60;6.90;;;8.20;99.90;;;;;;5061262;28;20042;-88
2024/02/06 11:59:25;;;;;;;10.60;6.55;;;7.80;99.90;;;;;;5091581;28;20021;-90
2024/02/06 12:01:51;;;;;;;16.02;6.30;;;9.20;99.90;;;;;;5070378;28;20050;-89
2024/02/06 12:04:24;;;;;;;11.35;6.53;;;9.70;99.90;;;;;;5073923;28;20032;-87
2024/02/06 12:07:06;;;;;;;12.27;5.30;;;6.50;99.90;;;;;;5088173;28;20008;-86
2024/02/06 12:09:40;;;;;;;10.50;5.38;;;;;;;;;;5090167;28;20088;-87
2024/02/06 12:12:07;;;;;;;11.13;6.18;;;8.10;99.90;;;;;;5089046;27;20032;-87
2024/02/06 12:14:33;;;;;;;8.55;5.53;;;;;;;;;;5087247;27;20035;-87
2024/02/06 12:17:04;;;;;;;10.05;5.60;;;8.10;99.90;;;;;;5081868;28;20037;-87
2024/02/06 12:20:09;;;;;;;10.25;6.28;;;8.00;99.90;;;;;;5076122;28;20106;-89
2024/02/06 12:22:35;;;;;;;11.48;6.43;;;;;;;;;;5105367;22;20024;-88
2024/02/06 12:25:02;;;;;;;12.38;6.43;;;;;;;;;;5090908;28;20017;-85
2024/02/06 12:27:28;;;;;;;14.02;7.05;;;8.10;99.90;;;;;;5073121;28;20096;-86
2024/02/06 12:29:54;;;;;;;13.52;7.20;;;;;;;;;;5088855;28;20008;-89
2024/02/06 12:32:19;;;;;;;14.40;7.93;;;8.10;99.90;;;;;;5071240;28;20008;-88
2024/02/06 12:34:45;;;;;;;12.82;7.72;;;11.10;99.90;;;;;;5071917;28;20036;-87
2024/02/06 12:37:13;;;;;;;10.60;7.28;;;8.20;99.90;;;;;;5073879;28;20032;-87
2024/02/06 12:39:41;;;;;;;13.70;6.75;;;8.30;99.90;;;;;;5071335;28;21027;-87
2024/02/06 12:42:07;;;;;;;10.57;6.72;;;;;;;;;;5089097;28;20059;-86
2024/02/06 12:44:39;;;;;;;12.18;6.43;;;8.30;99.90;;;;;;5089901;27;20029;-88
2024/02/06 12:47:06;;;;;;;10.10;6.90;;;8.20;99.90;;;;;;5072203;28;20037;-89
2024/02/06 12:49:32;;;;;;;11.20;6.50;;;;;;;;;;5073188;28;20020;-87
2024/02/06 12:52:08;;;;;;;12.85;7.00;;;8.30;99.90;;;;;;5088934;28;20100;-90
2024/02/06 12:54:34;;;;;;;8.60;5.80;;;;;;;;;;5088388;28;20043;-89
2024/02/06 12:57:03;;;;;;;10.50;6.30;;;8.30;99.90;;;;;;5072045;28;20020;-87
2024/02/06 12:59:31;;;;;;;9.73;5.68;;;8.40;99.90;;;;;;5072172;28;20029;-88
2024/02/06 13:02:05;;;;;;;12.85;5.75;;;8.40;99.90;;;;;;5088750;27;20084;-88
2024/02/06 13:04:31;;;;;;;10.23;6.30;;;7.10;99.90;;;;;;5071242;28;20024;-90
2024/02/06 13:06:57;;;;;;;10.40;5.85;;;;;;;;;;5069720;28;20039;-88
2024/02/06 13:09:30;;;;;;;10.00;5.78;;;8.50;99.90;;;;;;5073324;28;20017;-89
2024/02/06 13:11:56;;;;;;;11.30;5.80;;;8.50;99.90;;;;;;5066646;28;20011;-89
2024/02/06 13:14:23;;;;;;;10.27;6.10;;;8.50;99.90;;;;;;5073524;27;20053;-89
2024/02/06 13:16:55;;;;;;;9.05;5.28;;;8.60;99.90;;;;;;5074477;28;20109;-88
2024/02/06 13:19:28;;;;;;;19.80;10.55;;;8.60;99.90;;;;;;5091605;28;20047;-87
2024/02/06 13:45:50;;;;;;;8.75;4.68;;;8.90;99.90;;;;;;5003569;28;20037;-85
2024/02/06 14:59:57;;;;;;;10.00;3.72;;;9.50;99.90;;;;;;5003601;28;20056;-86
2024/02/06 17:20:36;;;;;;;7.82;4.20;;;9.10;99.90;;;;;;5035441;28;20044;-84
2024/02/06 17:24:10;;;;;;;11.57;4.70;;;8.90;99.90;;;;;;5024595;28;20032;-83
2024/02/06 17:27:12;;;;;;;7.72;3.83;;;9.00;99.90;;;;;;5019578;28;20065;-84
2024/02/06 17:43:42;;;;;;;9.98;5.20;;;8.90;99.90;;;;;;4943815;29;20071;-85
2024/02/06 23:01:04;;;;;;;13.10;6.97;;;8.50;99.90;;;;;;4947764;28;20097;-87
2024/02/06 23:06:58;;;;;;;14.48;7.22;;;8.50;99.90;;;;;;4986116;28;20034;-87
2024/02/06 23:09:54;;;;;;;11.75;6.82;;;8.40;99.90;;;;;;4968918;28;20058;-90
2024/02/06 23:22:59;;;;;;;14.27;6.55;;;8.50;99.90;;;;;;4965456;29;20062;-89
2024/02/06 23:32:41;;;;;;;14.60;6.75;;;8.60;99.90;;;;;;4973241;28;20045;-85
2024/02/06 23:35:29;;;;;;;11.05;7.03;;;8.70;99.90;;;;;;5039777;28;20072;-87
2024/02/06 23:48:47;;;;;;;14.20;6.40;;;8.70;99.90;;;;;;4994841;28;20060;-88
2024/02/06 23:52:00;;;;;;;12.98;7.40;;;8.70;99.90;;;;;;5045089;28;20435;-87
2024/02/06 23:54:38;;;;;;;10.18;6.53;;;8.70;99.90;;;;;;5026848;28;20038;-86
2024/02/06 23:57:52;;;;;;;14.43;7.60;;;8.60;99.90;;;;;;5044244;28;20017;-88
